AMX702 MMMX-MMHO
Flight info
| Callsign | AMX702 |
|---|---|
| Flight time | 2h 39m |
| Altitude | 34000 |
| Route | ATURO2A ATURO UT133 AGU UJ63 DGO UT49 NABAS UT18 NABLA NABLA1B |
| Aircraft | B738/M-SDE2E3FGHIRWXY/LB1 |
Departure
| Time | 2026-05-05 15:07 |
|---|---|
| Airport | Mexico City Benito Juárez International Airport (MMMX) |
Arrival
| Time | 2026-05-05 17:46 |
|---|---|
| Airport | General Ignacio L. Pesqueira International Airport (MMHO) |
| Time | Latitude | Longitude | Altitude | Speed | Heading |
|---|---|---|---|---|---|
| 2026-05-05 14:50 | 19.42291 | -99.08090 | 7302 ft | 0 kts | 166° |
| 2026-05-05 15:00 | 19.42299 | -99.08092 | 7302 ft | 2 kts | 165° |
| 2026-05-05 15:00 | 19.42310 | -99.08095 | 7302 ft | 2 kts | 165° |
| 2026-05-05 15:00 | 19.42331 | -99.08101 | 7302 ft | 2 kts | 165° |
| 2026-05-05 15:00 | 19.42346 | -99.08104 | 7302 ft | 2 kts | 184° |
| 2026-05-05 15:01 | 19.42361 | -99.08099 | 7302 ft | 1 kts | 245° |
| 2026-05-05 15:01 | 19.42364 | -99.08091 | 7302 ft | 1 kts | 264° |
| 2026-05-05 15:01 | 19.42364 | -99.08089 | 7302 ft | 0 kts | 265° |
| 2026-05-05 15:03 | 19.42364 | -99.08093 | 7302 ft | 4 kts | 265° |
| 2026-05-05 15:04 | 19.42366 | -99.08163 | 7302 ft | 12 kts | 290° |
| 2026-05-05 15:04 | 19.42418 | -99.08223 | 7302 ft | 10 kts | 327° |
| 2026-05-05 15:04 | 19.42470 | -99.08258 | 7302 ft | 8 kts | 329° |
| 2026-05-05 15:04 | 19.42510 | -99.08283 | 7302 ft | 5 kts | 329° |
| 2026-05-05 15:05 | 19.42548 | -99.08310 | 7302 ft | 2 kts | 314° |
| 2026-05-05 15:05 | 19.42580 | -99.08386 | 7302 ft | 17 kts | 291° |
| 2026-05-05 15:05 | 19.42623 | -99.08494 | 7302 ft | 15 kts | 292° |
| 2026-05-05 15:06 | 19.42670 | -99.08576 | 7291 ft | 11 kts | 327° |
| 2026-05-05 15:06 | 19.42716 | -99.08567 | 7303 ft | 5 kts | 52° |
| 2026-05-05 15:06 | 19.42750 | -99.08503 | 7302 ft | 30 kts | 60° |
| 2026-05-05 15:06 | 19.42975 | -99.08106 | 7302 ft | 94 kts | 59° |
| 2026-05-05 15:07 | 19.43402 | -99.07337 | 7302 ft | 148 kts | 59° |
| 2026-05-05 15:07 | 19.44017 | -99.06284 | 7453 ft | 178 kts | 53° |
| 2026-05-05 15:07 | 19.44766 | -99.05224 | 7925 ft | 195 kts | 52° |
| 2026-05-05 15:07 | 19.45747 | -99.04069 | 8169 ft | 219 kts | 45° |
| 2026-05-05 15:08 | 19.46774 | -99.02798 | 8657 ft | 237 kts | 47° |
| 2026-05-05 15:08 | 19.47780 | -99.01365 | 8994 ft | 250 kts | 62° |
| 2026-05-05 15:08 | 19.48582 | -98.99764 | 9656 ft | 238 kts | 64° |
| 2026-05-05 15:08 | 19.49325 | -98.98247 | 10562 ft | 226 kts | 60° |
| 2026-05-05 15:09 | 19.50054 | -98.96807 | 11234 ft | 217 kts | 65° |
| 2026-05-05 15:09 | 19.50678 | -98.95393 | 11821 ft | 207 kts | 64° |
| 2026-05-05 15:09 | 19.51329 | -98.94043 | 12205 ft | 208 kts | 62° |
| 2026-05-05 15:09 | 19.52037 | -98.92675 | 12442 ft | 215 kts | 60° |
| 2026-05-05 15:10 | 19.52793 | -98.91271 | 12694 ft | 223 kts | 60° |
| 2026-05-05 15:10 | 19.53615 | -98.89840 | 12924 ft | 232 kts | 53° |
| 2026-05-05 15:10 | 19.54692 | -98.88525 | 13167 ft | 240 kts | 47° |
| 2026-05-05 15:10 | 19.56014 | -98.87407 | 13366 ft | 251 kts | 21° |
| 2026-05-05 15:11 | 19.57760 | -98.87278 | 13629 ft | 261 kts | 346° |
| 2026-05-05 15:11 | 19.59493 | -98.87952 | 13914 ft | 271 kts | 339° |
| 2026-05-05 15:11 | 19.61265 | -98.88735 | 14174 ft | 281 kts | 338° |
| 2026-05-05 15:11 | 19.63096 | -98.89555 | 14423 ft | 291 kts | 338° |
| 2026-05-05 15:12 | 19.64991 | -98.90401 | 14668 ft | 298 kts | 339° |
| 2026-05-05 15:12 | 19.66931 | -98.91261 | 14864 ft | 307 kts | 339° |
| 2026-05-05 15:12 | 19.68928 | -98.92140 | 15105 ft | 315 kts | 339° |
| 2026-05-05 15:12 | 19.70986 | -98.93042 | 15351 ft | 323 kts | 339° |
| 2026-05-05 15:13 | 19.73058 | -98.93947 | 15583 ft | 329 kts | 339° |
| 2026-05-05 15:13 | 19.75175 | -98.94869 | 15802 ft | 328 kts | 339° |
| 2026-05-05 15:13 | 19.77288 | -98.95789 | 16024 ft | 329 kts | 339° |
| 2026-05-05 15:13 | 19.79404 | -98.96710 | 16244 ft | 329 kts | 339° |
| 2026-05-05 15:14 | 19.81521 | -98.97631 | 16471 ft | 329 kts | 339° |
| 2026-05-05 15:14 | 19.83642 | -98.98552 | 16693 ft | 329 kts | 340° |
| 2026-05-05 15:14 | 19.85764 | -98.99474 | 16902 ft | 330 kts | 340° |
| 2026-05-05 15:14 | 19.87893 | -99.00400 | 17112 ft | 331 kts | 340° |
| 2026-05-05 15:15 | 19.90033 | -99.01330 | 17319 ft | 333 kts | 340° |
| 2026-05-05 15:15 | 19.92178 | -99.02263 | 17533 ft | 334 kts | 340° |
| 2026-05-05 15:15 | 19.94340 | -99.03203 | 17744 ft | 336 kts | 340° |
| 2026-05-05 15:15 | 19.96507 | -99.04145 | 17956 ft | 338 kts | 340° |
| 2026-05-05 15:16 | 19.98688 | -99.05094 | 18171 ft | 340 kts | 340° |
| 2026-05-05 15:16 | 20.00881 | -99.06049 | 18388 ft | 342 kts | 340° |
| 2026-05-05 15:16 | 20.03088 | -99.07010 | 18587 ft | 344 kts | 340° |
| 2026-05-05 15:16 | 20.05305 | -99.07976 | 18767 ft | 345 kts | 340° |
| 2026-05-05 15:17 | 20.07531 | -99.08946 | 18942 ft | 346 kts | 340° |
| 2026-05-05 15:17 | 20.09764 | -99.09919 | 19130 ft | 347 kts | 340° |
| 2026-05-05 15:17 | 20.12004 | -99.10896 | 19341 ft | 348 kts | 339° |
| 2026-05-05 15:17 | 20.14247 | -99.11875 | 19549 ft | 349 kts | 339° |
| 2026-05-05 15:18 | 20.16491 | -99.12854 | 19769 ft | 349 kts | 339° |
| 2026-05-05 15:18 | 20.18736 | -99.13833 | 19982 ft | 349 kts | 339° |
| 2026-05-05 15:18 | 20.20985 | -99.14816 | 20201 ft | 349 kts | 339° |
| 2026-05-05 15:18 | 20.23233 | -99.15797 | 20427 ft | 349 kts | 339° |
| 2026-05-05 15:19 | 20.25484 | -99.16780 | 20643 ft | 350 kts | 339° |
| 2026-05-05 15:19 | 20.27736 | -99.17765 | 20861 ft | 350 kts | 339° |
| 2026-05-05 15:19 | 20.29984 | -99.18747 | 21084 ft | 350 kts | 339° |
| 2026-05-05 15:19 | 20.32236 | -99.19732 | 21312 ft | 350 kts | 339° |
| 2026-05-05 15:20 | 20.34491 | -99.20719 | 21539 ft | 351 kts | 339° |
| 2026-05-05 15:20 | 20.36751 | -99.21707 | 21781 ft | 352 kts | 339° |
| 2026-05-05 15:20 | 20.39018 | -99.22700 | 22006 ft | 353 kts | 339° |
| 2026-05-05 15:20 | 20.41293 | -99.23696 | 22239 ft | 354 kts | 339° |
| 2026-05-05 15:21 | 20.43569 | -99.24720 | 22482 ft | 356 kts | 335° |
| 2026-05-05 15:21 | 20.45700 | -99.26075 | 22708 ft | 359 kts | 323° |
| 2026-05-05 15:21 | 20.47641 | -99.27752 | 22957 ft | 360 kts | 321° |
| 2026-05-05 15:21 | 20.49546 | -99.29485 | 23208 ft | 361 kts | 320° |
| 2026-05-05 15:22 | 20.51451 | -99.31239 | 23462 ft | 362 kts | 320° |
| 2026-05-05 15:22 | 20.53362 | -99.32995 | 23689 ft | 363 kts | 320° |
| 2026-05-05 15:22 | 20.55260 | -99.34731 | 23888 ft | 365 kts | 320° |
| 2026-05-05 15:22 | 20.57191 | -99.36488 | 24096 ft | 365 kts | 320° |
| 2026-05-05 15:23 | 20.59129 | -99.38245 | 24300 ft | 366 kts | 320° |
| 2026-05-05 15:23 | 20.61076 | -99.40008 | 24507 ft | 367 kts | 320° |
| 2026-05-05 15:23 | 20.63026 | -99.41771 | 24720 ft | 368 kts | 320° |
| 2026-05-05 15:23 | 20.64982 | -99.43539 | 24925 ft | 369 kts | 320° |
| 2026-05-05 15:24 | 20.66940 | -99.45309 | 25145 ft | 369 kts | 320° |
| 2026-05-05 15:24 | 20.68238 | -99.46483 | 25280 ft | 369 kts | 320° |
| 2026-05-05 15:24 | 20.70198 | -99.48256 | 25489 ft | 369 kts | 320° |
| 2026-05-05 15:24 | 20.72159 | -99.50029 | 25705 ft | 369 kts | 320° |
| 2026-05-05 15:25 | 20.74119 | -99.51803 | 25924 ft | 369 kts | 319° |
| 2026-05-05 15:25 | 20.76103 | -99.53599 | 26141 ft | 369 kts | 319° |
| 2026-05-05 15:25 | 20.78036 | -99.55350 | 26369 ft | 369 kts | 319° |
| 2026-05-05 15:25 | 20.79994 | -99.57123 | 26591 ft | 369 kts | 319° |
| 2026-05-05 15:26 | 20.81952 | -99.58898 | 26806 ft | 369 kts | 319° |
| 2026-05-05 15:26 | 20.83905 | -99.60668 | 27032 ft | 368 kts | 319° |
| 2026-05-05 15:26 | 20.85855 | -99.62437 | 27261 ft | 367 kts | 319° |
| 2026-05-05 15:26 | 20.87800 | -99.64202 | 27485 ft | 367 kts | 319° |
| 2026-05-05 15:27 | 20.89748 | -99.65970 | 27724 ft | 366 kts | 319° |
| 2026-05-05 15:27 | 20.91685 | -99.67729 | 27954 ft | 365 kts | 318° |
| 2026-05-05 15:27 | 20.93620 | -99.69486 | 28186 ft | 364 kts | 318° |
| 2026-05-05 15:27 | 20.95548 | -99.71238 | 28424 ft | 363 kts | 318° |
| 2026-05-05 15:28 | 20.97468 | -99.72983 | 28674 ft | 362 kts | 318° |
| 2026-05-05 15:28 | 20.99385 | -99.74726 | 28899 ft | 360 kts | 318° |
| 2026-05-05 15:28 | 21.01291 | -99.76459 | 29134 ft | 359 kts | 317° |
| 2026-05-05 15:28 | 21.02997 | -99.78387 | 29274 ft | 357 kts | 304° |
| 2026-05-05 15:29 | 21.04282 | -99.80667 | 29315 ft | 359 kts | 292° |
| 2026-05-05 15:29 | 21.05846 | -99.85765 | 29508 ft | 362 kts | 284° |
| 2026-05-05 15:29 | 21.06532 | -99.88358 | 29697 ft | 362 kts | 284° |
| 2026-05-05 15:30 | 21.07213 | -99.90946 | 29923 ft | 361 kts | 284° |
| 2026-05-05 15:30 | 21.07896 | -99.93524 | 30119 ft | 360 kts | 284° |
| 2026-05-05 15:30 | 21.08587 | -99.96105 | 30257 ft | 360 kts | 284° |
| 2026-05-05 15:30 | 21.09282 | -99.98685 | 30370 ft | 361 kts | 285° |
| 2026-05-05 15:31 | 21.09981 | -100.01268 | 30515 ft | 361 kts | 285° |
| 2026-05-05 15:31 | 21.10683 | -100.03847 | 30649 ft | 361 kts | 284° |
| 2026-05-05 15:31 | 21.11386 | -100.06432 | 30794 ft | 361 kts | 285° |
| 2026-05-05 15:31 | 21.12089 | -100.09012 | 30961 ft | 360 kts | 284° |
| 2026-05-05 15:32 | 21.12781 | -100.11552 | 31070 ft | 361 kts | 284° |
| 2026-05-05 15:32 | 21.13482 | -100.14130 | 31197 ft | 360 kts | 284° |
| 2026-05-05 15:32 | 21.14183 | -100.16703 | 31346 ft | 359 kts | 284° |
| 2026-05-05 15:32 | 21.14882 | -100.19272 | 31465 ft | 359 kts | 284° |
| 2026-05-05 15:33 | 21.15581 | -100.21845 | 31573 ft | 360 kts | 284° |
| 2026-05-05 15:33 | 21.16280 | -100.24416 | 31693 ft | 359 kts | 284° |
| 2026-05-05 15:33 | 21.16978 | -100.26985 | 31824 ft | 359 kts | 284° |
| 2026-05-05 15:33 | 21.17673 | -100.29549 | 31934 ft | 359 kts | 284° |
| 2026-05-05 15:34 | 21.18369 | -100.32115 | 32029 ft | 358 kts | 284° |
| 2026-05-05 15:34 | 21.19062 | -100.34676 | 32143 ft | 358 kts | 284° |
| 2026-05-05 15:34 | 21.19756 | -100.37238 | 32259 ft | 358 kts | 284° |
| 2026-05-05 15:35 | 21.21140 | -100.42355 | 32430 ft | 357 kts | 284° |
| 2026-05-05 15:35 | 21.22523 | -100.47472 | 32597 ft | 357 kts | 283° |
| 2026-05-05 15:36 | 21.23903 | -100.52590 | 32733 ft | 358 kts | 283° |
| 2026-05-05 15:36 | 21.25287 | -100.57730 | 32819 ft | 360 kts | 283° |
| 2026-05-05 15:37 | 21.26679 | -100.62901 | 32903 ft | 362 kts | 283° |
| 2026-05-05 15:37 | 21.28076 | -100.68099 | 33000 ft | 363 kts | 283° |
| 2026-05-05 15:38 | 21.29473 | -100.73305 | 33126 ft | 363 kts | 283° |
| 2026-05-05 15:38 | 21.30870 | -100.78518 | 33239 ft | 364 kts | 283° |
| 2026-05-05 15:39 | 21.32267 | -100.83737 | 33335 ft | 365 kts | 283° |
| 2026-05-05 15:39 | 21.33666 | -100.88971 | 33413 ft | 366 kts | 283° |
| 2026-05-05 15:40 | 21.35067 | -100.94220 | 33513 ft | 366 kts | 283° |
| 2026-05-05 15:40 | 21.36470 | -100.99482 | 33602 ft | 367 kts | 283° |
| 2026-05-05 15:41 | 21.37862 | -101.04710 | 33702 ft | 366 kts | 283° |
| 2026-05-05 15:41 | 21.39258 | -101.09958 | 33865 ft | 361 kts | 283° |
| 2026-05-05 15:42 | 21.40623 | -101.15099 | 33911 ft | 361 kts | 283° |
| 2026-05-05 15:42 | 21.41999 | -101.20291 | 33841 ft | 363 kts | 283° |
| 2026-05-05 15:43 | 21.43382 | -101.25516 | 33786 ft | 365 kts | 283° |
| 2026-05-05 15:43 | 21.44776 | -101.30785 | 33819 ft | 364 kts | 283° |
| 2026-05-05 15:44 | 21.46144 | -101.35965 | 33872 ft | 362 kts | 283° |
| 2026-05-05 15:44 | 21.47516 | -101.41169 | 33903 ft | 362 kts | 283° |
| 2026-05-05 15:45 | 21.48888 | -101.46378 | 33884 ft | 363 kts | 283° |
| 2026-05-05 15:45 | 21.50260 | -101.51600 | 33862 ft | 364 kts | 283° |
| 2026-05-05 15:46 | 21.51633 | -101.56828 | 33879 ft | 364 kts | 283° |
| 2026-05-05 15:46 | 21.53005 | -101.62059 | 33916 ft | 363 kts | 283° |
| 2026-05-05 15:47 | 21.54373 | -101.67282 | 33943 ft | 363 kts | 283° |
| 2026-05-05 15:47 | 21.55740 | -101.72509 | 33948 ft | 364 kts | 282° |
| 2026-05-05 15:48 | 21.57107 | -101.77742 | 33946 ft | 364 kts | 282° |
| 2026-05-05 15:48 | 21.58473 | -101.82979 | 33968 ft | 364 kts | 282° |
| 2026-05-05 15:49 | 21.59837 | -101.88216 | 33990 ft | 364 kts | 282° |
| 2026-05-05 15:49 | 21.61200 | -101.93457 | 33994 ft | 364 kts | 282° |
| 2026-05-05 15:50 | 21.62560 | -101.98694 | 34041 ft | 364 kts | 282° |
| 2026-05-05 15:50 | 21.63919 | -102.03932 | 34085 ft | 364 kts | 282° |
| 2026-05-05 15:51 | 21.65277 | -102.09177 | 34132 ft | 364 kts | 282° |
| 2026-05-05 15:51 | 21.66632 | -102.14419 | 34193 ft | 364 kts | 282° |
| 2026-05-05 15:52 | 21.67986 | -102.19660 | 34265 ft | 364 kts | 282° |
| 2026-05-05 15:52 | 21.69338 | -102.24903 | 34293 ft | 364 kts | 282° |
| 2026-05-05 15:53 | 21.70816 | -102.30112 | 34256 ft | 368 kts | 293° |
| 2026-05-05 15:53 | 21.72122 | -102.32457 | 34146 ft | 375 kts | 305° |
| 2026-05-05 15:53 | 21.73923 | -102.34515 | 34022 ft | 382 kts | 316° |
| 2026-05-05 15:54 | 21.78044 | -102.38154 | 34042 ft | 382 kts | 318° |
| 2026-05-05 15:54 | 21.82165 | -102.41705 | 34197 ft | 377 kts | 317° |
| 2026-05-05 15:55 | 21.86206 | -102.45246 | 34271 ft | 373 kts | 317° |
| 2026-05-05 15:55 | 21.90220 | -102.48800 | 34204 ft | 374 kts | 317° |
| 2026-05-05 15:56 | 21.94250 | -102.52379 | 34086 ft | 377 kts | 317° |
| 2026-05-05 15:56 | 21.98296 | -102.55974 | 34028 ft | 377 kts | 317° |
| 2026-05-05 15:57 | 22.02346 | -102.59574 | 34076 ft | 376 kts | 317° |
| 2026-05-05 15:57 | 22.06373 | -102.63157 | 34136 ft | 375 kts | 317° |
| 2026-05-05 15:58 | 22.10393 | -102.66737 | 34166 ft | 375 kts | 317° |
| 2026-05-05 15:58 | 22.14411 | -102.70320 | 34180 ft | 375 kts | 317° |
| 2026-05-05 15:59 | 22.18439 | -102.73915 | 34188 ft | 376 kts | 317° |
| 2026-05-05 15:59 | 22.22468 | -102.77514 | 34212 ft | 376 kts | 316° |
| 2026-05-05 16:00 | 22.26491 | -102.81111 | 34250 ft | 375 kts | 317° |
| 2026-05-05 16:00 | 22.30507 | -102.84704 | 34271 ft | 375 kts | 316° |
| 2026-05-05 16:01 | 22.34521 | -102.88294 | 34294 ft | 375 kts | 316° |
| 2026-05-05 16:01 | 22.38537 | -102.91889 | 34296 ft | 375 kts | 316° |
| 2026-05-05 16:02 | 22.42520 | -102.95457 | 34303 ft | 375 kts | 316° |
| 2026-05-05 16:02 | 22.46534 | -102.99056 | 34326 ft | 374 kts | 316° |
| 2026-05-05 16:03 | 22.50540 | -103.02650 | 34342 ft | 374 kts | 316° |
| 2026-05-05 16:03 | 22.54545 | -103.06247 | 34363 ft | 374 kts | 316° |
| 2026-05-05 16:04 | 22.58546 | -103.09844 | 34361 ft | 374 kts | 316° |
| 2026-05-05 16:04 | 22.62548 | -103.13444 | 34367 ft | 374 kts | 316° |
| 2026-05-05 16:05 | 22.66550 | -103.17047 | 34401 ft | 374 kts | 316° |
| 2026-05-05 16:05 | 22.70549 | -103.20649 | 34430 ft | 374 kts | 316° |
| 2026-05-05 16:06 | 22.74539 | -103.24247 | 34463 ft | 373 kts | 316° |
| 2026-05-05 16:06 | 22.78526 | -103.27845 | 34487 ft | 373 kts | 316° |
| 2026-05-05 16:07 | 22.82511 | -103.31444 | 34501 ft | 373 kts | 316° |
| 2026-05-05 16:07 | 22.86499 | -103.35048 | 34523 ft | 373 kts | 316° |
| 2026-05-05 16:08 | 22.90477 | -103.38646 | 34539 ft | 373 kts | 316° |
| 2026-05-05 16:08 | 22.94453 | -103.42245 | 34558 ft | 372 kts | 315° |
| 2026-05-05 16:09 | 22.98425 | -103.45844 | 34579 ft | 372 kts | 315° |
| 2026-05-05 16:09 | 23.02390 | -103.49439 | 34588 ft | 371 kts | 315° |
| 2026-05-05 16:10 | 23.05685 | -103.52428 | 34595 ft | 371 kts | 315° |
| 2026-05-05 16:10 | 23.09642 | -103.56021 | 34598 ft | 371 kts | 315° |
| 2026-05-05 16:11 | 23.13600 | -103.59617 | 34611 ft | 371 kts | 315° |
| 2026-05-05 16:12 | 23.21495 | -103.66801 | 34645 ft | 369 kts | 315° |
| 2026-05-05 16:13 | 23.31342 | -103.75776 | 34663 ft | 369 kts | 315° |
| 2026-05-05 16:13 | 23.35276 | -103.79367 | 34690 ft | 369 kts | 315° |
| 2026-05-05 16:14 | 23.43120 | -103.86536 | 34746 ft | 368 kts | 315° |
| 2026-05-05 16:15 | 23.50912 | -103.93668 | 34788 ft | 367 kts | 315° |
| 2026-05-05 16:16 | 23.58710 | -104.00815 | 34809 ft | 366 kts | 315° |
| 2026-05-05 16:17 | 23.64538 | -104.06161 | 34815 ft | 365 kts | 314° |
| 2026-05-05 16:18 | 23.70353 | -104.11504 | 34810 ft | 364 kts | 314° |
| 2026-05-05 16:19 | 23.76163 | -104.16850 | 34801 ft | 364 kts | 314° |
| 2026-05-05 16:19 | 23.81967 | -104.22196 | 34833 ft | 364 kts | 314° |
| 2026-05-05 16:20 | 23.89683 | -104.29314 | 34912 ft | 362 kts | 314° |
| 2026-05-05 16:22 | 23.99292 | -104.38195 | 35040 ft | 362 kts | 314° |
| 2026-05-05 16:23 | 24.06967 | -104.45303 | 35131 ft | 361 kts | 314° |
| 2026-05-05 16:23 | 24.12719 | -104.50636 | 35147 ft | 361 kts | 314° |
| 2026-05-05 16:24 | 24.14500 | -104.52540 | 35125 ft | 356 kts | 303° |
| 2026-05-05 16:24 | 24.16032 | -104.54662 | 35079 ft | 355 kts | 302° |
| 2026-05-05 16:25 | 24.20516 | -104.61134 | 35066 ft | 355 kts | 302° |
| 2026-05-05 16:25 | 24.24988 | -104.67548 | 35087 ft | 352 kts | 302° |
| 2026-05-05 16:26 | 24.30944 | -104.76057 | 34955 ft | 353 kts | 302° |
| 2026-05-05 16:27 | 24.33932 | -104.80326 | 34881 ft | 353 kts | 302° |
| 2026-05-05 16:27 | 24.36919 | -104.84598 | 34887 ft | 352 kts | 302° |
| 2026-05-05 16:28 | 24.39875 | -104.88827 | 34932 ft | 351 kts | 302° |
| 2026-05-05 16:28 | 24.42840 | -104.93074 | 34963 ft | 350 kts | 302° |
| 2026-05-05 16:29 | 24.45797 | -104.97315 | 34868 ft | 350 kts | 302° |
| 2026-05-05 16:29 | 24.48755 | -105.01561 | 34864 ft | 351 kts | 302° |
| 2026-05-05 16:30 | 24.51718 | -105.05816 | 34881 ft | 351 kts | 302° |
| 2026-05-05 16:30 | 24.54677 | -105.10069 | 34921 ft | 350 kts | 302° |
| 2026-05-05 16:31 | 24.57627 | -105.14315 | 34973 ft | 349 kts | 302° |
| 2026-05-05 16:31 | 24.60577 | -105.18564 | 35007 ft | 349 kts | 302° |
| 2026-05-05 16:32 | 24.63518 | -105.22803 | 35016 ft | 349 kts | 302° |
| 2026-05-05 16:32 | 24.66461 | -105.27049 | 35031 ft | 349 kts | 302° |
| 2026-05-05 16:33 | 24.69398 | -105.31294 | 35048 ft | 349 kts | 302° |
| 2026-05-05 16:33 | 24.72331 | -105.35536 | 35062 ft | 348 kts | 302° |
| 2026-05-05 16:34 | 24.75256 | -105.39772 | 35066 ft | 348 kts | 302° |
| 2026-05-05 16:34 | 24.78180 | -105.44011 | 35078 ft | 348 kts | 302° |
| 2026-05-05 16:35 | 24.81109 | -105.48262 | 35119 ft | 348 kts | 302° |
| 2026-05-05 16:35 | 24.84015 | -105.52478 | 35162 ft | 347 kts | 302° |
| 2026-05-05 16:36 | 24.86930 | -105.56714 | 35238 ft | 347 kts | 302° |
| 2026-05-05 16:36 | 24.89842 | -105.60950 | 35273 ft | 346 kts | 302° |
| 2026-05-05 16:37 | 24.92744 | -105.65177 | 35282 ft | 346 kts | 302° |
| 2026-05-05 16:37 | 24.95643 | -105.69400 | 35278 ft | 345 kts | 302° |
| 2026-05-05 16:38 | 24.98541 | -105.73628 | 35266 ft | 345 kts | 302° |
| 2026-05-05 16:38 | 25.01433 | -105.77850 | 35257 ft | 345 kts | 301° |
| 2026-05-05 16:39 | 25.04331 | -105.82084 | 35216 ft | 346 kts | 302° |
| 2026-05-05 16:39 | 25.07229 | -105.86321 | 35227 ft | 345 kts | 301° |
| 2026-05-05 16:40 | 25.10119 | -105.90543 | 35274 ft | 344 kts | 302° |
| 2026-05-05 16:40 | 25.12996 | -105.94753 | 35319 ft | 343 kts | 301° |
| 2026-05-05 16:41 | 25.15871 | -105.98963 | 35313 ft | 343 kts | 301° |
| 2026-05-05 16:41 | 25.18744 | -106.03176 | 35293 ft | 344 kts | 301° |
| 2026-05-05 16:42 | 25.21619 | -106.07394 | 35295 ft | 343 kts | 301° |
| 2026-05-05 16:42 | 25.24484 | -106.11601 | 35308 ft | 342 kts | 301° |
| 2026-05-05 16:43 | 25.27337 | -106.15794 | 35313 ft | 341 kts | 301° |
| 2026-05-05 16:43 | 25.30190 | -106.19992 | 35348 ft | 342 kts | 301° |
| 2026-05-05 16:44 | 25.33043 | -106.24195 | 35365 ft | 342 kts | 301° |
| 2026-05-05 16:44 | 25.35896 | -106.28400 | 35362 ft | 342 kts | 301° |
| 2026-05-05 16:45 | 25.38749 | -106.32608 | 35384 ft | 342 kts | 301° |
| 2026-05-05 16:45 | 25.41600 | -106.36818 | 35396 ft | 342 kts | 301° |
| 2026-05-05 16:46 | 25.44431 | -106.41045 | 35421 ft | 341 kts | 301° |
| 2026-05-05 16:46 | 25.47229 | -106.45286 | 35464 ft | 341 kts | 300° |
| 2026-05-05 16:47 | 25.50023 | -106.49526 | 35486 ft | 341 kts | 300° |
| 2026-05-05 16:47 | 25.52815 | -106.53761 | 35481 ft | 341 kts | 300° |
| 2026-05-05 16:48 | 25.55608 | -106.58000 | 35459 ft | 341 kts | 300° |
| 2026-05-05 16:48 | 25.58400 | -106.62239 | 35490 ft | 340 kts | 300° |
| 2026-05-05 16:49 | 25.61183 | -106.66468 | 35460 ft | 339 kts | 300° |
| 2026-05-05 16:49 | 25.63961 | -106.70696 | 35439 ft | 339 kts | 300° |
| 2026-05-05 16:50 | 25.66719 | -106.74897 | 35386 ft | 339 kts | 300° |
| 2026-05-05 16:50 | 25.69494 | -106.79125 | 35417 ft | 339 kts | 300° |
| 2026-05-05 16:51 | 25.72264 | -106.83350 | 35446 ft | 338 kts | 300° |
| 2026-05-05 16:51 | 25.75027 | -106.87569 | 35452 ft | 338 kts | 300° |
| 2026-05-05 16:52 | 25.77791 | -106.91793 | 35470 ft | 338 kts | 300° |
| 2026-05-05 16:52 | 25.80553 | -106.96018 | 35474 ft | 338 kts | 300° |
| 2026-05-05 16:53 | 25.83313 | -107.00245 | 35511 ft | 338 kts | 300° |
| 2026-05-05 16:53 | 25.86071 | -107.04471 | 35557 ft | 338 kts | 300° |
| 2026-05-05 16:54 | 25.88833 | -107.08699 | 35570 ft | 338 kts | 300° |
| 2026-05-05 16:54 | 25.91601 | -107.12925 | 35559 ft | 338 kts | 300° |
| 2026-05-05 16:55 | 25.94349 | -107.17122 | 35575 ft | 338 kts | 300° |
| 2026-05-05 16:55 | 25.97110 | -107.21347 | 35639 ft | 338 kts | 300° |
| 2026-05-05 16:56 | 25.99863 | -107.25562 | 35663 ft | 337 kts | 300° |
| 2026-05-05 16:56 | 26.02164 | -107.29089 | 35676 ft | 336 kts | 300° |
| 2026-05-05 16:57 | 26.04903 | -107.33291 | 35693 ft | 335 kts | 300° |
| 2026-05-05 16:57 | 26.07639 | -107.37494 | 35674 ft | 336 kts | 300° |
| 2026-05-05 16:58 | 26.10375 | -107.41698 | 35688 ft | 335 kts | 300° |
| 2026-05-05 16:58 | 26.13090 | -107.45877 | 35696 ft | 336 kts | 300° |
| 2026-05-05 16:59 | 26.15826 | -107.50089 | 35716 ft | 336 kts | 300° |
| 2026-05-05 16:59 | 26.18560 | -107.54304 | 35761 ft | 335 kts | 300° |
| 2026-05-05 17:00 | 26.21291 | -107.58516 | 35776 ft | 335 kts | 300° |
| 2026-05-05 17:00 | 26.24019 | -107.62729 | 35801 ft | 335 kts | 300° |
| 2026-05-05 17:01 | 26.26743 | -107.66939 | 35817 ft | 335 kts | 300° |
| 2026-05-05 17:01 | 26.29461 | -107.71143 | 35844 ft | 334 kts | 300° |
| 2026-05-05 17:02 | 26.32178 | -107.75350 | 35852 ft | 334 kts | 300° |
| 2026-05-05 17:02 | 26.34891 | -107.79556 | 35861 ft | 334 kts | 300° |
| 2026-05-05 17:03 | 26.37605 | -107.83765 | 35862 ft | 334 kts | 300° |
| 2026-05-05 17:03 | 26.40313 | -107.87969 | 35820 ft | 333 kts | 300° |
| 2026-05-05 17:04 | 26.43016 | -107.92171 | 35826 ft | 333 kts | 300° |
| 2026-05-05 17:04 | 26.45716 | -107.96371 | 35806 ft | 333 kts | 300° |
| 2026-05-05 17:05 | 26.48410 | -108.00566 | 35744 ft | 332 kts | 300° |
| 2026-05-05 17:05 | 26.51103 | -108.04764 | 35672 ft | 332 kts | 300° |
| 2026-05-05 17:06 | 26.53791 | -108.08957 | 35683 ft | 332 kts | 300° |
| 2026-05-05 17:06 | 26.56474 | -108.13145 | 35706 ft | 331 kts | 300° |
| 2026-05-05 17:07 | 26.59224 | -108.17278 | 35702 ft | 335 kts | 307° |
| 2026-05-05 17:07 | 26.62509 | -108.20981 | 35616 ft | 339 kts | 308° |
| 2026-05-05 17:08 | 26.65870 | -108.24677 | 35640 ft | 339 kts | 308° |
| 2026-05-05 17:08 | 26.69217 | -108.28375 | 35656 ft | 337 kts | 308° |
| 2026-05-05 17:09 | 26.72544 | -108.32071 | 35702 ft | 337 kts | 308° |
| 2026-05-05 17:09 | 26.75858 | -108.35765 | 35706 ft | 336 kts | 308° |
| 2026-05-05 17:10 | 26.79172 | -108.39465 | 35698 ft | 337 kts | 308° |
| 2026-05-05 17:10 | 26.82492 | -108.43175 | 35691 ft | 337 kts | 307° |
| 2026-05-05 17:11 | 26.85874 | -108.46969 | 35352 ft | 355 kts | 301° |
| 2026-05-05 17:11 | 26.87635 | -108.48957 | 35100 ft | 363 kts | 302° |
| 2026-05-05 17:11 | 26.89430 | -108.50972 | 35031 ft | 366 kts | 302° |
| 2026-05-05 17:12 | 26.91230 | -108.52981 | 35145 ft | 363 kts | 302° |
| 2026-05-05 17:12 | 26.93012 | -108.54963 | 35338 ft | 358 kts | 302° |
| 2026-05-05 17:12 | 26.94765 | -108.56915 | 35484 ft | 354 kts | 301° |
| 2026-05-05 17:12 | 26.96497 | -108.58850 | 35617 ft | 349 kts | 301° |
| 2026-05-05 17:13 | 26.98209 | -108.60768 | 35727 ft | 346 kts | 301° |
| 2026-05-05 17:13 | 26.99903 | -108.62670 | 35799 ft | 344 kts | 301° |
| 2026-05-05 17:13 | 27.03282 | -108.66474 | 35837 ft | 345 kts | 301° |
| 2026-05-05 17:14 | 27.06654 | -108.70278 | 35675 ft | 348 kts | 301° |
| 2026-05-05 17:14 | 27.10082 | -108.74139 | 35591 ft | 350 kts | 301° |
| 2026-05-05 17:15 | 27.13520 | -108.78012 | 35712 ft | 349 kts | 301° |
| 2026-05-05 17:15 | 27.16929 | -108.81851 | 35878 ft | 345 kts | 301° |
| 2026-05-05 17:16 | 27.20306 | -108.85661 | 35954 ft | 343 kts | 301° |
| 2026-05-05 17:16 | 27.23672 | -108.89469 | 35926 ft | 344 kts | 300° |
| 2026-05-05 17:17 | 27.27055 | -108.93300 | 35869 ft | 346 kts | 301° |
| 2026-05-05 17:17 | 27.30446 | -108.97138 | 35870 ft | 346 kts | 300° |
| 2026-05-05 17:18 | 27.33831 | -109.00971 | 35944 ft | 344 kts | 300° |
| 2026-05-05 17:18 | 27.37191 | -109.04778 | 35973 ft | 342 kts | 300° |
| 2026-05-05 17:19 | 27.40562 | -109.08597 | 34920 ft | 368 kts | 306° |
| 2026-05-05 17:19 | 27.42694 | -109.10547 | 33949 ft | 400 kts | 308° |
| 2026-05-05 17:19 | 27.44878 | -109.12431 | 33925 ft | 381 kts | 305° |
| 2026-05-05 17:20 | 27.46725 | -109.14459 | 32852 ft | 373 kts | 297° |
| 2026-05-05 17:20 | 27.48353 | -109.16730 | 32060 ft | 374 kts | 296° |
| 2026-05-05 17:20 | 27.49976 | -109.18952 | 31877 ft | 362 kts | 298° |
| 2026-05-05 17:20 | 27.51627 | -109.21052 | 31650 ft | 353 kts | 299° |
| 2026-05-05 17:21 | 27.53289 | -109.23046 | 31411 ft | 346 kts | 300° |
| 2026-05-05 17:21 | 27.54976 | -109.25012 | 31232 ft | 354 kts | 301° |
| 2026-05-05 17:21 | 27.56724 | -109.27023 | 31032 ft | 363 kts | 301° |
| 2026-05-05 17:22 | 27.60345 | -109.31164 | 30637 ft | 376 kts | 302° |
| 2026-05-05 17:22 | 27.62178 | -109.33275 | 30434 ft | 376 kts | 301° |
| 2026-05-05 17:22 | 27.64010 | -109.35387 | 30237 ft | 377 kts | 301° |
| 2026-05-05 17:22 | 27.65836 | -109.37499 | 30025 ft | 377 kts | 301° |
| 2026-05-05 17:23 | 27.67666 | -109.39617 | 29788 ft | 377 kts | 301° |
| 2026-05-05 17:23 | 27.69496 | -109.41735 | 29553 ft | 377 kts | 301° |
| 2026-05-05 17:23 | 27.71325 | -109.43855 | 29317 ft | 376 kts | 301° |
| 2026-05-05 17:23 | 27.73151 | -109.45972 | 29082 ft | 376 kts | 301° |
| 2026-05-05 17:24 | 27.74972 | -109.48084 | 28877 ft | 375 kts | 301° |
| 2026-05-05 17:24 | 27.78615 | -109.52315 | 28802 ft | 375 kts | 302° |
| 2026-05-05 17:25 | 27.82243 | -109.56531 | 28800 ft | 374 kts | 301° |
| 2026-05-05 17:25 | 27.85873 | -109.60757 | 28797 ft | 375 kts | 301° |
| 2026-05-05 17:26 | 27.89510 | -109.64995 | 28797 ft | 376 kts | 301° |
| 2026-05-05 17:26 | 27.93163 | -109.69259 | 28807 ft | 380 kts | 301° |
| 2026-05-05 17:27 | 27.96849 | -109.73561 | 28790 ft | 378 kts | 301° |
| 2026-05-05 17:27 | 28.00475 | -109.77786 | 28794 ft | 373 kts | 301° |
| 2026-05-05 17:28 | 28.04066 | -109.81994 | 28793 ft | 375 kts | 301° |
| 2026-05-05 17:28 | 28.07694 | -109.86247 | 28789 ft | 376 kts | 301° |
| 2026-05-05 17:29 | 28.11328 | -109.90509 | 28790 ft | 377 kts | 301° |
| 2026-05-05 17:29 | 28.14971 | -109.94782 | 28785 ft | 377 kts | 301° |
| 2026-05-05 17:30 | 28.18841 | -109.98900 | 28788 ft | 388 kts | 307° |
| 2026-05-05 17:30 | 28.23114 | -110.02690 | 28783 ft | 391 kts | 309° |
| 2026-05-05 17:31 | 28.27421 | -110.06463 | 28780 ft | 391 kts | 308° |
| 2026-05-05 17:31 | 28.31696 | -110.10274 | 28790 ft | 390 kts | 308° |
| 2026-05-05 17:32 | 28.35945 | -110.14103 | 28779 ft | 390 kts | 308° |
| 2026-05-05 17:32 | 28.40181 | -110.17936 | 28769 ft | 389 kts | 308° |
| 2026-05-05 17:33 | 28.44411 | -110.21773 | 28764 ft | 390 kts | 308° |
| 2026-05-05 17:33 | 28.46543 | -110.23712 | 28336 ft | 394 kts | 308° |
| 2026-05-05 17:33 | 28.48688 | -110.25662 | 27768 ft | 395 kts | 308° |
| 2026-05-05 17:33 | 28.50834 | -110.27610 | 27113 ft | 394 kts | 308° |
| 2026-05-05 17:34 | 28.52972 | -110.29548 | 26495 ft | 392 kts | 309° |
| 2026-05-05 17:34 | 28.55102 | -110.31481 | 25873 ft | 391 kts | 309° |
| 2026-05-05 17:34 | 28.57224 | -110.33409 | 25275 ft | 389 kts | 309° |
| 2026-05-05 17:34 | 28.59335 | -110.35329 | 24686 ft | 388 kts | 309° |
| 2026-05-05 17:35 | 28.61435 | -110.37239 | 24095 ft | 386 kts | 310° |
| 2026-05-05 17:35 | 28.63525 | -110.39141 | 23531 ft | 383 kts | 310° |
| 2026-05-05 17:35 | 28.65595 | -110.41027 | 22851 ft | 380 kts | 310° |
| 2026-05-05 17:35 | 28.67652 | -110.42903 | 22190 ft | 378 kts | 310° |
| 2026-05-05 17:36 | 28.69698 | -110.44770 | 21536 ft | 376 kts | 310° |
| 2026-05-05 17:36 | 28.71732 | -110.46629 | 20899 ft | 374 kts | 310° |
| 2026-05-05 17:36 | 28.73754 | -110.48475 | 20284 ft | 372 kts | 310° |
| 2026-05-05 17:36 | 28.75766 | -110.50315 | 19675 ft | 370 kts | 311° |
| 2026-05-05 17:37 | 28.77765 | -110.52144 | 19073 ft | 368 kts | 311° |
| 2026-05-05 17:37 | 28.79084 | -110.53351 | 18685 ft | 367 kts | 311° |
| 2026-05-05 17:37 | 28.81735 | -110.55778 | 17859 ft | 364 kts | 312° |
| 2026-05-05 17:37 | 28.83708 | -110.57585 | 17191 ft | 363 kts | 312° |
| 2026-05-05 17:38 | 28.85670 | -110.59384 | 16534 ft | 361 kts | 312° |
| 2026-05-05 17:38 | 28.87621 | -110.61172 | 15897 ft | 359 kts | 313° |
| 2026-05-05 17:38 | 28.89560 | -110.62951 | 15267 ft | 357 kts | 313° |
| 2026-05-05 17:38 | 28.91454 | -110.64687 | 14652 ft | 350 kts | 313° |
| 2026-05-05 17:39 | 28.93343 | -110.66420 | 13537 ft | 354 kts | 313° |
| 2026-05-05 17:39 | 28.95309 | -110.68240 | 12012 ft | 371 kts | 314° |
| 2026-05-05 17:39 | 28.97352 | -110.70128 | 10707 ft | 382 kts | 315° |
| 2026-05-05 17:39 | 28.99452 | -110.72029 | 9787 ft | 380 kts | 319° |
| 2026-05-05 17:40 | 29.01718 | -110.73499 | 8936 ft | 379 kts | 332° |
| 2026-05-05 17:40 | 29.04221 | -110.74484 | 8308 ft | 371 kts | 342° |
| 2026-05-05 17:40 | 29.06651 | -110.75135 | 7865 ft | 356 kts | 343° |
| 2026-05-05 17:40 | 29.08994 | -110.75782 | 7641 ft | 336 kts | 342° |
| 2026-05-05 17:41 | 29.11189 | -110.76407 | 7509 ft | 316 kts | 342° |
| 2026-05-05 17:41 | 29.13270 | -110.77009 | 7393 ft | 301 kts | 342° |
| 2026-05-05 17:41 | 29.15257 | -110.77586 | 7252 ft | 290 kts | 342° |
| 2026-05-05 17:41 | 29.17257 | -110.78210 | 6399 ft | 306 kts | 336° |
| 2026-05-05 17:42 | 29.19036 | -110.79544 | 5521 ft | 311 kts | 310° |
| 2026-05-05 17:42 | 29.20079 | -110.81648 | 5044 ft | 299 kts | 283° |
| 2026-05-05 17:42 | 29.20219 | -110.83939 | 4576 ft | 284 kts | 262° |
| 2026-05-05 17:42 | 29.19543 | -110.86129 | 3499 ft | 300 kts | 240° |
| 2026-05-05 17:43 | 29.18488 | -110.88114 | 3347 ft | 285 kts | 239° |
| 2026-05-05 17:43 | 29.17461 | -110.90004 | 3214 ft | 274 kts | 240° |
| 2026-05-05 17:43 | 29.16796 | -110.91238 | 3070 ft | 265 kts | 240° |
| 2026-05-05 17:43 | 29.15875 | -110.92956 | 2994 ft | 248 kts | 240° |
| 2026-05-05 17:44 | 29.15019 | -110.94556 | 2998 ft | 220 kts | 240° |
| 2026-05-05 17:44 | 29.14270 | -110.95962 | 2900 ft | 196 kts | 241° |
| 2026-05-05 17:44 | 29.13579 | -110.97265 | 2327 ft | 196 kts | 241° |
| 2026-05-05 17:44 | 29.12893 | -110.98557 | 2059 ft | 179 kts | 241° |
| 2026-05-05 17:45 | 29.12288 | -110.99693 | 1760 ft | 163 kts | 242° |
| 2026-05-05 17:45 | 29.11696 | -111.00808 | 1220 ft | 164 kts | 242° |
| 2026-05-05 17:45 | 29.11127 | -111.01879 | 1078 ft | 156 kts | 241° |
| 2026-05-05 17:45 | 29.10573 | -111.02919 | 1013 ft | 153 kts | 242° |
| 2026-05-05 17:46 | 29.09999 | -111.03921 | 775 ft | 150 kts | 242° |
| 2026-05-05 17:46 | 29.09517 | -111.04901 | 640 ft | 131 kts | 243° |
| 2026-05-05 17:46 | 29.09127 | -111.05578 | 621 ft | 38 kts | 165° |
| 2026-05-05 17:46 | 29.09105 | -111.05587 | 629 ft | 0 kts | 121° |
| 2026-05-05 17:47 | 29.09077 | -111.05533 | 621 ft | 37 kts | 113° |
| 2026-05-05 17:47 | 29.09039 | -111.05318 | 634 ft | 15 kts | 137° |
| 2026-05-05 17:47 | 29.09023 | -111.05306 | 624 ft | 0 kts | 148° |